Hamilton Island Airport

YBHM · Queensland, 澳大利亚

METAR的历史 YBHM · Hamilton Island Airport

下面你可以看到过去几天的METARs。 选择年份以浏览从2007年开始的旧METAR。

2024年7月22日

时间 代码 天气 温度 能见度 天花板 METAR/SPECI
08:00
V
18 °C 10 km+ - 140° 140° 23 kt METAR YBHM 212200Z AUTO 14023KT 9999 // NCD 18/10 Q1023 RF00.0/000.0
07:30
V
18 °C 10 km+ - 140° 140° 25 kt METAR YBHM 212130Z AUTO 14025KT 9999 // NCD 18/11 Q1023 RF00.0/000.0
07:00
V
18 °C 10 km+ - 140° 140° 25 kt METAR YBHM 212100Z AUTO 14025KT 9999 // NCD 18/10 Q1022 RF00.0/000.0
06:30
V
18 °C 10 km+ - 140° 140° 24 kt METAR YBHM 212030Z AUTO 14024KT 9999 // NCD 18/10 Q1022 RF00.0/000.0
06:00
V
18 °C 10 km+ - 150° 150° 23 kt METAR YBHM 212000Z AUTO 15023KT 9999 // NCD 18/09 Q1022 RF00.0/000.0
05:30
V
18 °C 10 km+ - 140° 140° 22 kt METAR YBHM 211930Z AUTO 14022KT 9999 // NCD 18/10 Q1021 RF00.0/000.0
05:00
V
18 °C 10 km+ - 140° 140° 23 kt METAR YBHM 211900Z AUTO 14023KT 9999 // NCD 18/11 Q1021 RF00.0/000.0
04:30
V
18 °C 10 km+ - 140° 140° 23 kt METAR YBHM 211830Z AUTO 14023KT 9999 // NCD 18/10 Q1021 RF00.0/000.0
04:00
V
19 °C 10 km+ - 140° 140° 21 kt METAR YBHM 211800Z AUTO 14021KT 9999 // NCD 19/10 Q1021 RF00.0/000.0
03:30
V
19 °C 10 km+ - 140° 140° 23 kt METAR YBHM 211730Z AUTO 14023KT 9999 // NCD 19/10 Q1021 RF00.0/000.0
03:00
V
19 °C 10 km+ - 140° 140° 20 kt METAR YBHM 211700Z AUTO 14020KT 9999 // NCD 19/10 Q1021 RF00.0/000.0
02:30
V
19 °C 10 km+ - 140° 140° 20 kt METAR YBHM 211630Z AUTO 14020KT 9999 // NCD 19/10 Q1021 RF00.0/000.0
02:00
V
19 °C 10 km+ - 140° 140° 19 kt METAR YBHM 211600Z AUTO 14019KT 9999 // NCD 19/11 Q1021 RF00.0/000.0
01:30
V
19 °C 10 km+ - 140° 140° 19 kt METAR YBHM 211530Z AUTO 14019KT 9999 // NCD 19/11 Q1021 RF00.0/000.0
01:00
V
19 °C 10 km+ - 140° 140° 18 kt METAR YBHM 211500Z AUTO 14018KT 9999 // NCD 19/09 Q1021 RF00.0/000.0
00:30
V
19 °C 10 km+ - 140° 140° 18 kt METAR YBHM 211430Z AUTO 14018KT 9999 // NCD 19/09 Q1022 RF00.0/000.0
00:00
V
20 °C 10 km+ - 140° 140° 16 kt METAR YBHM 211400Z AUTO 14016KT 9999 // NCD 20/10 Q1022 RF00.0/000.0

2024年7月21日

时间 代码 天气 温度 能见度 天花板 METAR/SPECI
23:30
V
20 °C 10 km+ - 130° 130° 17 kt METAR YBHM 211330Z AUTO 13017KT 9999 // NCD 20/11 Q1022 RF00.0/000.0
23:00
V
20 °C 10 km+ - 140° 140° 18 kt METAR YBHM 211300Z AUTO 14018KT 9999 // NCD 20/10 Q1022 RF00.0/000.0
22:30
V
20 °C 10 km+ - 140° 140° 15 kt METAR YBHM 211230Z AUTO 14015KT 9999 // NCD 20/10 Q1022 RF00.0/000.0
22:00
V
20 °C 10 km+ - 130° 130° 16 kt METAR YBHM 211200Z AUTO 13016KT 9999 // NCD 20/10 Q1022 RF00.0/000.0
21:30
V
20 °C 10 km+ - 130° 130° 13 kt METAR YBHM 211130Z AUTO 13013KT 9999 // NCD 20/12 Q1022 RF00.0/000.0
21:00
V
19 °C 10 km+ - 130° 130° 13 kt METAR YBHM 211100Z AUTO 13013KT 9999 // NCD 19/13 Q1021 RF00.0/000.0
20:30
V
19 °C 10 km+ - 130° 130° 13 kt METAR YBHM 211030Z AUTO 13013KT 9999 // NCD 19/13 Q1021 RF00.0/000.0
20:00
V
20 °C 10 km+ - 130° 130° 14 kt METAR YBHM 211000Z AUTO 13014KT 9999 // NCD 20/12 Q1021 RF00.0/000.0
19:30
V
20 °C 10 km+ - 110° 110° 14 kt METAR YBHM 210930Z AUTO 11014KT 9999 // NCD 20/11 Q1020 RF00.0/000.0
19:00
V
20 °C 10 km+ - 110° 110° 13 kt METAR YBHM 210900Z AUTO 11013KT 9999 // NCD 20/10 Q1020 RF00.0/000.0
18:30
V
20 °C 10 km+ - 100° 100° 12 kt METAR YBHM 210830Z AUTO 10012KT 9999 // NCD 20/11 Q1020 RF00.0/000.0
18:00
V
20 °C 10 km+ - 090° 090° 14 kt METAR YBHM 210800Z AUTO 09014KT 9999 // NCD 20/11 Q1019 RF00.0/000.0
17:30
V
20 °C 10 km+ - 090° 090° 13 kt METAR YBHM 210730Z AUTO 09013KT 9999 // NCD 20/10 Q1019 RF00.0/000.0
17:00
V
20 °C 10 km+ - 110° 110° 12 kt METAR YBHM 210700Z AUTO 11012KT 9999 // NCD 20/09 Q1019 RF00.0/000.0
16:30
V
20 °C 10 km+ - 110° 110° 13 kt METAR YBHM 210630Z AUTO 11013KT 9999 // NCD 20/10 Q1019 RF00.0/000.0
16:00
V
20 °C 10 km+ - 120° 120° 14 kt METAR YBHM 210600Z AUTO 12014KT 9999 // NCD 20/10 Q1019 RF00.0/000.0
15:30
V
20 °C 10 km+ - 120° 120° 16 kt METAR YBHM 210530Z AUTO 12016KT 9999 // NCD 20/08 Q1019 RF00.0/000.0
15:00
V
20 °C 10 km+ - 130° 130° 16 kt METAR YBHM 210500Z AUTO 13016KT 9999 // NCD 20/08 Q1019 RF00.0/000.0
14:30
V
20 °C 10 km+ - 130° 130° 18 kt METAR YBHM 210430Z AUTO 13018KT 9999 // NCD 20/09 Q1019 RF00.0/000.0
14:00
V
20 °C 10 km+ - 130° 130° 19 kt METAR YBHM 210400Z AUTO 13019KT 9999 // NCD 20/09 Q1019 RF00.0/000.0
13:30
V
20 °C 10 km+ - 140° 140° 21 kt METAR YBHM 210330Z AUTO 14021KT 9999 // NCD 20/11 Q1020 RF00.0/000.0
13:00
V
19 °C 10 km+ - 140° 140° 22 kt METAR YBHM 210300Z AUTO 14022KT 9999 // NCD 19/11 Q1020 RF00.0/000.0
12:30
V
19 °C 10 km+ - 140° 140° 21 kt METAR YBHM 210230Z AUTO 14021KT 9999 // NCD 19/11 Q1021 RF00.0/000.0
12:00
V
20 °C 10 km+ - 140° 140° 22 kt METAR YBHM 210200Z AUTO 14022KT 9999 // NCD 20/12 Q1021 RF00.0/000.0
11:30
V
20 °C 10 km+ - 150° 150° 22 kt METAR YBHM 210130Z AUTO 15022KT 9999 // NCD 20/12 Q1021 RF00.0/000.0
11:00
V
20 °C 10 km+ - 140° 140° 21 kt METAR YBHM 210100Z AUTO 14021KT 9999 // NCD 20/12 Q1021 RF00.0/000.0
10:30
V
20 °C 10 km+ - 140° 140° 22 kt METAR YBHM 210030Z AUTO 14022KT 9999 // NCD 20/12 Q1021 RF00.0/000.0
10:00
V
20 °C 10 km+ - 130° 130° 20 kt METAR YBHM 210000Z AUTO 13020KT 9999 // NCD 20/13 Q1021 RF00.0/000.0
09:49
V
20 °C 10 km+ - 140° 140° 20 kt METAR YBHM 202349Z AUTO 14020KT 9999 // NCD 20/12 Q1021 RF00.0/000.0
09:30
V
19 °C 10 km+ - 180° 180° 15 kt METAR YBHM 202330Z AUTO 18015KT 9999 // NCD 19/12 Q1021 RF00.0/000.0
09:00
V
20 °C 10 km+ - 180° 180° 8 kt METAR YBHM 202300Z AUTO 18008KT 9999 // NCD 20/14 Q1021 RF00.0/000.0
08:30
V
19 °C 10 km+ - 300° 300° 2 kt METAR YBHM 202230Z AUTO 30002KT 9999 // NCD 19/16 Q1021 RF00.0/000.0
08:00
V
19 °C 10 km+ - 310° 310° 4 kt METAR YBHM 202200Z AUTO 31004KT 9999 // NCD 19/16 Q1020 RF00.0/000.0
07:30
V
18 °C 10 km+ - 310° 310° 6 kt METAR YBHM 202130Z AUTO 31006KT 9999 // NCD 18/16 Q1020 RF00.0/000.0
07:00
V
18 °C 10 km+ - 310° 310° 5 kt METAR YBHM 202100Z AUTO 31005KT 9999 // NCD 18/16 Q1020 RF00.0/000.0
06:30
V
17 °C 10 km+ - 310° 310° 5 kt METAR YBHM 202030Z AUTO 31005KT 9999 // NCD 17/15 Q1019 RF00.0/000.0
06:00
V
17 °C 10 km+ - 320° 320° 6 kt METAR YBHM 202000Z AUTO 32006KT 9999 // NCD 17/15 Q1019 RF00.0/000.0
05:30
V
17 °C 10 km+ - 320° 320° 7 kt METAR YBHM 201930Z AUTO 32007KT 9999 // NCD 17/15 Q1019 RF00.0/000.0
05:00
V
17 °C 10 km+ - 310° 310° 7 kt METAR YBHM 201900Z AUTO 31007KT 9999 // NCD 17/15 Q1019 RF00.0/000.0
04:30
V
18 °C 10 km+ - 320° 320° 7 kt METAR YBHM 201830Z AUTO 32007KT 9999 // NCD 18/15 Q1018 RF00.0/000.0
04:00
V
17 °C 10 km+ - 320° 320° 6 kt METAR YBHM 201800Z AUTO 32006KT 9999 // NCD 17/15 Q1018 RF00.0/000.0
03:30
V
18 °C 10 km+ - 320° 320° 6 kt METAR YBHM 201730Z AUTO 32006KT 9999 // NCD 18/15 Q1018 RF00.0/000.0
03:00
V
18 °C 10 km+ - 320° 320° 6 kt METAR YBHM 201700Z AUTO 32006KT 9999 // NCD 18/15 Q1018 RF00.0/000.0
02:30
V
18 °C 10 km+ - 320° 320° 6 kt METAR YBHM 201630Z AUTO 32006KT 9999 // NCD 18/15 Q1018 RF00.0/000.0
02:00
V
18 °C 10 km+ - 320° 320° 6 kt METAR YBHM 201600Z AUTO 32006KT 9999 // NCD 18/15 Q1018 RF00.0/000.0
01:30
V
18 °C 10 km+ - 310° 310° 5 kt METAR YBHM 201530Z AUTO 31005KT 9999 // NCD 18/14 Q1019 RF00.0/000.0
01:00
V
18 °C 10 km+ - 330° 330° 5 kt METAR YBHM 201500Z AUTO 33005KT 9999 // NCD 18/14 Q1019 RF00.0/000.0
00:30
V
18 °C 10 km+ - 330° 330° 7 kt METAR YBHM 201430Z AUTO 33007KT 9999 // NCD 18/14 Q1019 RF00.0/000.0
00:00
V
18 °C 10 km+ - 330° 330° 7 kt METAR YBHM 201400Z AUTO 33007KT 9999 // NCD 18/14 Q1019 RF00.0/000.0

2024年7月20日

时间 代码 天气 温度 能见度 天花板 METAR/SPECI
23:30
V
18 °C 10 km+ - 310° 310° 5 kt METAR YBHM 201330Z AUTO 31005KT 9999 // NCD 18/14 Q1019 RF00.0/000.0
23:00
V
18 °C 10 km+ - 300° 300° 3 kt METAR YBHM 201300Z AUTO 30003KT 9999 // NCD 18/15 Q1019 RF00.0/000.0
22:30
V
19 °C 10 km+ - 310° 310° 4 kt METAR YBHM 201230Z AUTO 31004KT 9999 // NCD 19/13 Q1019 RF00.0/000.0
22:00
V
19 °C 10 km+ - 290° 290° 3 kt METAR YBHM 201200Z AUTO 29003KT 9999 // NCD 19/13 Q1019 RF00.0/000.0
21:30
V
19 °C 10 km+ - 330° 330° 3 kt METAR YBHM 201130Z AUTO 33003KT 9999 // NCD 19/13 Q1019 RF00.0/000.0
21:00
V
19 °C 10 km+ - 310° 310° 5 kt METAR YBHM 201100Z AUTO 31005KT 9999 // NCD 19/13 Q1019 RF00.0/000.0
20:30
V
19 °C 10 km+ - 320° 320° 8 kt METAR YBHM 201030Z AUTO 32008KT 9999 // NCD 19/12 Q1019 RF00.0/000.0
20:00
V
19 °C 10 km+ - 320° 320° 8 kt METAR YBHM 201000Z AUTO 32008KT 9999 // NCD 19/12 Q1019 RF00.0/000.0
19:30
V
19 °C 10 km+ - 320° 320° 8 kt METAR YBHM 200930Z AUTO 32008KT 9999 // NCD 19/11 Q1018 RF00.0/000.0
19:00
V
19 °C 10 km+ - 340° 340° 8 kt METAR YBHM 200900Z AUTO 34008KT 9999 // NCD 19/11 Q1018 RF00.0/000.0
18:30
V
20 °C 10 km+ - 350° 350° 7 kt METAR YBHM 200830Z AUTO 35007KT 9999 // NCD 20/12 Q1018 RF00.0/000.0
18:00
V
20 °C 10 km+ - 330° 330° 8 kt METAR YBHM 200800Z AUTO 33008KT 9999 // NCD 20/12 Q1017 RF00.0/000.0
17:30
V
20 °C 10 km+ - 310° 310° 8 kt METAR YBHM 200730Z AUTO 31008KT 9999 // NCD 20/12 Q1017 RF00.0/000.0
17:00
V
21 °C 10 km+ - 320° 320° 9 kt METAR YBHM 200700Z AUTO 32009KT 9999 // NCD 21/12 Q1017 RF00.0/000.0
16:30
V
21 °C 10 km+ - 310° 310° 8 kt METAR YBHM 200630Z AUTO 31008KT 9999 // NCD 21/11 Q1017 RF00.0/000.0
16:00
V
22 °C 10 km+ - 320° 320° 8 kt METAR YBHM 200600Z AUTO 32008KT 9999 // NCD 22/11 Q1017 RF00.0/000.0
15:30
V
22 °C 10 km+ - 290° 290° 5 kt METAR YBHM 200530Z AUTO 29005KT 9999 // NCD 22/12 Q1016 RF00.0/000.0
15:00
V
22 °C 10 km+ - 350° 350° 4 kt METAR YBHM 200500Z AUTO 35004KT 320V060 9999 // NCD 22/12 Q1016 RF00.0/000.0
14:30
V
23 °C 10 km+ - 050° 050° 3 kt METAR YBHM 200430Z AUTO 05003KT 9999 // NCD 23/12 Q1016 RF00.0/000.0
14:00
V
21 °C 10 km+ - 100° 100° 8 kt METAR YBHM 200400Z AUTO 10008KT 9999 // NCD 21/11 Q1017 RF00.0/000.0
13:30
V
22 °C 10 km+ - 280° 280° 3 kt METAR YBHM 200330Z AUTO 28003KT 9999 // NCD 22/08 Q1017 RF00.0/000.0
13:00
V
21 °C 10 km+ - 290° 290° 4 kt METAR YBHM 200300Z AUTO 29004KT 9999 // NCD 21/08 Q1017 RF00.0/000.0
12:30
V
22 °C 10 km+ - 320° 320° 5 kt METAR YBHM 200230Z AUTO 32005KT 9999 // NCD 22/10 Q1018 RF00.0/000.0
12:00
V
21 °C 10 km+ - 310° 310° 6 kt METAR YBHM 200200Z AUTO 31006KT 9999 // NCD 21/09 Q1019 RF00.0/000.0
11:30
V
21 °C 10 km+ - 330° 330° 7 kt METAR YBHM 200130Z AUTO 33007KT 9999 // NCD 21/10 Q1019 RF00.0/000.0
11:00
V
20 °C 10 km+ - 320° 320° 7 kt METAR YBHM 200100Z AUTO 32007KT 9999 // NCD 20/10 Q1020 RF00.0/000.0
10:30
V
20 °C 10 km+ - 330° 330° 8 kt METAR YBHM 200030Z AUTO 33008KT 9999 // NCD 20/11 Q1020 RF00.0/000.0
10:00
V
20 °C 10 km+ - 320° 320° 7 kt METAR YBHM 200000Z AUTO 32007KT 9999 // NCD 20/11 Q1021 RF00.0/000.0
09:30
V
19 °C 10 km+ - 310° 310° 5 kt METAR YBHM 192330Z AUTO 31005KT 9999 // NCD 19/12 Q1021 RF00.0/000.0
09:00
V
19 °C 10 km+ - 350° 350° 5 kt METAR YBHM 192300Z AUTO 35005KT 9999 // NCD 19/12 Q1021 RF00.0/000.0
08:30
V
18 °C 10 km+ - 340° 340° 4 kt METAR YBHM 192230Z AUTO 34004KT 9999 // NCD 18/13 Q1020 RF00.0/000.0
08:00
V
18 °C 10 km+ - 340° 340° 4 kt METAR YBHM 192200Z AUTO 34004KT 9999 // NCD 18/13 Q1020 RF00.0/000.0
07:30
V
17 °C 10 km+ - 300° 300° 3 kt METAR YBHM 192130Z AUTO 30003KT 9999 // NCD 17/14 Q1020 RF00.0/000.0
07:00
V
17 °C 10 km+ - 310° 310° 4 kt METAR YBHM 192100Z AUTO 31004KT 9999 // NCD 17/13 Q1020 RF00.0/000.0
06:30
V
16 °C 10 km+ - 310° 310° 6 kt METAR YBHM 192030Z AUTO 31006KT 9999 // NCD 16/13 Q1020 RF00.0/000.0
06:00
V
16 °C 10 km+ - 310° 310° 6 kt METAR YBHM 192000Z AUTO 31006KT 9999 // NCD 16/13 Q1019 RF00.0/000.0
05:30
V
16 °C 10 km+ - 310° 310° 5 kt METAR YBHM 191930Z AUTO 31005KT 9999 // NCD 16/13 Q1019 RF00.0/000.0
05:00
V
16 °C 10 km+ - 320° 320° 4 kt METAR YBHM 191900Z AUTO 32004KT 9999 // NCD 16/13 Q1019 RF00.0/000.0
04:30
V
16 °C 10 km+ - 320° 320° 5 kt METAR YBHM 191830Z AUTO 32005KT 9999 // NCD 16/13 Q1018 RF00.0/000.0
04:00
V
16 °C 10 km+ - 330° 330° 6 kt METAR YBHM 191800Z AUTO 33006KT 9999 // NCD 16/12 Q1018 RF00.0/000.0
03:30
V
16 °C 10 km+ - 320° 320° 3 kt METAR YBHM 191730Z AUTO 32003KT 9999 // NCD 16/13 Q1018 RF00.0/000.0
03:00
V
16 °C 10 km+ - 320° 320° 6 kt METAR YBHM 191700Z AUTO 32006KT 9999 // NCD 16/13 Q1018 RF00.0/000.0
02:30
V
16 °C 10 km+ - 260° 260° 4 kt METAR YBHM 191630Z AUTO 26004KT 9999 // NCD 16/12 Q1018 RF00.0/000.0
02:00
V
16 °C 10 km+ - 250° 250° 6 kt METAR YBHM 191600Z AUTO 25006KT 9999 // NCD 16/12 Q1019 RF00.0/000.0
01:30
V
16 °C 10 km+ - 240° 240° 4 kt METAR YBHM 191530Z AUTO 24004KT 9999 // NCD 16/12 Q1019 RF00.0/000.0
01:00
V
16 °C 10 km+ - 300° 300° 4 kt METAR YBHM 191500Z AUTO 30004KT 260V320 9999 // NCD 16/13 Q1019 RF00.0/000.0
00:30
V
16 °C 10 km+ - 320° 320° 3 kt METAR YBHM 191430Z AUTO 32003KT 9999 // NCD 16/13 Q1019 RF00.0/000.0
00:00
V
16 °C 10 km+ - 320° 320° 4 kt METAR YBHM 191400Z AUTO 32004KT 9999 // NCD 16/13 Q1019 RF00.0/000.0

2024年7月19日

时间 代码 天气 温度 能见度 天花板 METAR/SPECI
23:30
V
16 °C 10 km+ - 320° 320° 6 kt METAR YBHM 191330Z AUTO 32006KT 9999 // NCD 16/12 Q1019 RF00.0/000.0
23:00
V
16 °C 10 km+ - 330° 330° 4 kt METAR YBHM 191300Z AUTO 33004KT 9999 // NCD 16/12 Q1019 RF00.0/000.0
22:30
V
16 °C 10 km+ - 310° 310° 4 kt METAR YBHM 191230Z AUTO 31004KT 9999 // NCD 16/13 Q1020 RF00.0/000.0
22:00
V
16 °C 10 km+ - 320° 320° 5 kt METAR YBHM 191200Z AUTO 32005KT 9999 // NCD 16/13 Q1020 RF00.0/000.0
21:30
V
16 °C 10 km+ - 320° 320° 5 kt METAR YBHM 191130Z AUTO 32005KT 9999 // NCD 16/12 Q1020 RF00.0/000.0
21:00
V
16 °C 10 km+ - 010° 010° 1 kt METAR YBHM 191100Z AUTO 01001KT 9999 // NCD 16/11 Q1020 RF00.0/000.0
20:30
V
17 °C 10 km+ - 030° 030° 4 kt METAR YBHM 191030Z AUTO 03004KT 9999 // NCD 17/11 Q1020 RF00.0/000.0
20:00
V
17 °C 10 km+ - 070° 070° 6 kt METAR YBHM 191000Z AUTO 07006KT 9999 // NCD 17/10 Q1020 RF00.0/000.0
19:30
V
17 °C 10 km+ - 070° 070° 7 kt METAR YBHM 190930Z AUTO 07007KT 9999 // NCD 17/10 Q1019 RF00.0/000.0
19:00
V
17 °C 10 km+ - 060° 060° 7 kt METAR YBHM 190900Z AUTO 06007KT 9999 // NCD 17/10 Q1019 RF00.0/000.0
18:30
V
17 °C 10 km+ - 090° 090° 8 kt METAR YBHM 190830Z AUTO 09008KT 9999 // NCD 17/11 Q1019 RF00.0/000.0
18:00
V
17 °C 10 km+ - 090° 090° 9 kt METAR YBHM 190800Z AUTO 09009KT 9999 // NCD 17/10 Q1019 RF00.0/000.0
17:30
V
17 °C 10 km+ - 090° 090° 11 kt METAR YBHM 190730Z AUTO 09011KT 9999 // NCD 17/10 Q1019 RF00.0/000.0
17:00
V
17 °C 10 km+ - 120° 120° 10 kt METAR YBHM 190700Z AUTO 12010KT 9999 // NCD 17/10 Q1019 RF00.0/000.0
16:30
V
18 °C 10 km+ - 120° 120° 9 kt METAR YBHM 190630Z AUTO 12009KT 9999 // NCD 18/10 Q1019 RF00.0/000.0
16:00
V
18 °C 10 km+ - 140° 140° 8 kt METAR YBHM 190600Z AUTO 14008KT 9999 // NCD 18/10 Q1018 RF00.0/000.0
报告变更